MGGTMRPV

Guest
Details From MGGT - La Aurora
To MRPV - Tobias Bolanos Intl
Flight Number -
Tags Generated
Created
Modified
Stats Distance 466 nm / 863 km
Max Altitude 0 ft / 0 m
Waypoints 3
Social Downloads 2
Likes 0
Share VATSIM

Download

Looking for another format? Having issues loading an existing format? Contact us
Advertisement - Login to hide

Notes

Generated

Route

MGGT R1514 MRPV

ID Type Via Altitude Latitude Longitude Leg Dist Tot Dist Heading (true) Name
O MGGT APT - 0 ft / 0 m 14.57040˚ -90.53161˚ - 0 nm - -
R1514 FIX - 0 ft / 0 m 9.98900˚ -84.22186˚ 461 nm 461 nm 126° / 127° -
O MRPV APT - 0 ft / 0 m 9.95770˚ -84.14715˚ 4 nm 466 nm 113° / 113° -

Altitude Profile

Advertisement - Login to hide

Weather


0- 5 10 15 20 25 30 35+ Temperature / ° C

Clouds and Precipitation
Forecast for 2017-12-16 18:00 UTC. Updated 11 minutes ago

Ground ~20,000 ft ~40,000 ft Winds

MGGT

Details ICAO MGGT (GUA)
Name La Aurora
Region Guatemala
Timezone America/Guatemala (UTC-6.0)
Stats Elevation 4,952 ft / 1,509 m (AMSL)
Location 14.583272° -90.527473°
Runways 1
Magnetic Variation 1.070° E

METAR

MGGT 161300Z 36012KT 9999 SCT014 16/14 1026 A3030

Decode

TAF

TAF TAF MGGT 161100Z 1612/1712 36008KT 9999 FEW016 TX25/1620Z TN11/1612Z BECMG 1615/1617 05008KT FEW018 BECMG 1620/1622 SCT020 BECMG 1701/1703 03008KT SCT016 TEMPO 1706/1712 FEW016

Decode

Departure Runways

ID Width Length Bearing (true) Bearing (mag) Surface Threshold Offset Overrun Length
01 196 ft / 60 m 9,841 ft / 3,000 m 17.29° 16.22° Asphalt 0 ft / 0 m 0 ft / 0 m
19 196 ft / 60 m 9,841 ft / 3,000 m 197.29° 196.22° Asphalt 722 ft / 220 m 0 ft / 0 m

MRPV

Details ICAO MRPV (SYQ)
Name TOBIAS BOLANOS INTL
Region Costa Rica
Timezone America/Costa_Rica (UTC-6.0)
Stats Elevation 3,287 ft / 1,002 m (AMSL)
Location 9.957052° -84.139797°
Runways 1
Magnetic Variation 1.754° W

METAR

MRPV 161300Z 13007KT 9999 FEW035 19/14 A3005 NOSIG

Decode

TAF

MRPV 161100Z 1612/1712 10012KT 9999 FEW045 TX28/1619Z TN18/1709Z TEMPO 1612/1621 08014G24KT

Decode

Destination Runways

ID Width Length Bearing (true) Bearing (mag) Surface Threshold Offset Overrun Length
09 60 ft / 18 m 5,304 ft / 1,617 m 95.09° 96.84° Asphalt 200 ft / 61 m 0 ft / 0 m
27 60 ft / 18 m 5,304 ft / 1,617 m 275.10° 276.85° Asphalt 0 ft / 0 m 0 ft / 0 m

Popular Alternatives